sensor_id;sensor_type;location;lat;lon;timestamp;P1;durP1;ratioP1;P2;durP2;ratioP2
20928;SDS011;21895;47.072;15.132;2022-11-09T00:01:02;14.53;;;4.60;;
20928;SDS011;21895;47.072;15.132;2022-11-09T00:03:29;17.33;;;4.03;;
20928;SDS011;21895;47.072;15.132;2022-11-09T00:05:56;17.90;;;3.80;;
20928;SDS011;21895;47.072;15.132;2022-11-09T00:08:25;19.97;;;3.60;;
20928;SDS011;21895;47.072;15.132;2022-11-09T00:10:51;8.27;;;3.90;;
20928;SDS011;21895;47.072;15.132;2022-11-09T00:13:18;8.17;;;4.17;;
20928;SDS011;21895;47.072;15.132;2022-11-09T00:15:45;41.67;;;4.83;;
20928;SDS011;21895;47.072;15.132;2022-11-09T00:18:12;10.87;;;4.17;;
20928;SDS011;21895;47.072;15.132;2022-11-09T00:20:38;40.87;;;4.63;;
20928;SDS011;21895;47.072;15.132;2022-11-09T00:23:13;18.27;;;3.87;;
20928;SDS011;21895;47.072;15.132;2022-11-09T00:25:40;12.20;;;3.80;;
20928;SDS011;21895;47.072;15.132;2022-11-09T00:28:06;6.17;;;3.47;;
20928;SDS011;21895;47.072;15.132;2022-11-09T00:30:33;35.23;;;4.33;;
20928;SDS011;21895;47.072;15.132;2022-11-09T00:32:59;66.77;;;5.63;;
20928;SDS011;21895;47.072;15.132;2022-11-09T00:35:26;17.30;;;3.87;;
20928;SDS011;21895;47.072;15.132;2022-11-09T00:37:53;9.73;;;3.90;;
20928;SDS011;21895;47.072;15.132;2022-11-09T00:40:19;7.33;;;4.23;;
20928;SDS011;21895;47.072;15.132;2022-11-09T00:42:46;8.47;;;4.00;;
20928;SDS011;21895;47.072;15.132;2022-11-09T00:45:12;8.37;;;4.13;;
20928;SDS011;21895;47.072;15.132;2022-11-09T00:47:39;12.27;;;3.97;;
20928;SDS011;21895;47.072;15.132;2022-11-09T00:50:06;44.67;;;4.57;;
20928;SDS011;21895;47.072;15.132;2022-11-09T00:52:33;10.53;;;3.93;;
20928;SDS011;21895;47.072;15.132;2022-11-09T00:54:59;12.57;;;4.13;;
20928;SDS011;21895;47.072;15.132;2022-11-09T00:57:26;8.60;;;4.57;;
20928;SDS011;21895;47.072;15.132;2022-11-09T00:59:52;12.57;;;3.53;;
20928;SDS011;21895;47.072;15.132;2022-11-09T01:02:19;8.87;;;3.37;;
20928;SDS011;21895;47.072;15.132;2022-11-09T01:04:45;12.07;;;3.80;;
20928;SDS011;21895;47.072;15.132;2022-11-09T01:07:12;10.83;;;3.47;;
20928;SDS011;21895;47.072;15.132;2022-11-09T01:09:38;9.13;;;4.07;;
20928;SDS011;21895;47.072;15.132;2022-11-09T01:12:05;8.70;;;3.60;;
20928;SDS011;21895;47.072;15.132;2022-11-09T01:14:31;7.10;;;3.33;;
20928;SDS011;21895;47.072;15.132;2022-11-09T01:16:58;5.33;;;3.13;;
20928;SDS011;21895;47.072;15.132;2022-11-09T01:19:24;8.03;;;3.30;;
20928;SDS011;21895;47.072;15.132;2022-11-09T01:21:51;6.87;;;3.17;;
20928;SDS011;21895;47.072;15.132;2022-11-09T01:24:17;53.67;;;4.17;;
20928;SDS011;21895;47.072;15.132;2022-11-09T01:26:44;69.27;;;4.57;;
20928;SDS011;21895;47.072;15.132;2022-11-09T01:29:10;55.97;;;4.50;;
20928;SDS011;21895;47.072;15.132;2022-11-09T01:31:37;32.00;;;4.10;;
20928;SDS011;21895;47.072;15.132;2022-11-09T01:34:03;19.03;;;3.60;;
20928;SDS011;21895;47.072;15.132;2022-11-09T01:36:30;8.73;;;3.57;;
20928;SDS011;21895;47.072;15.132;2022-11-09T01:38:56;33.27;;;4.03;;
20928;SDS011;21895;47.072;15.132;2022-11-09T01:41:24;39.57;;;3.03;;
20928;SDS011;21895;47.072;15.132;2022-11-09T01:46:55;12.63;;;3.30;;
20928;SDS011;21895;47.072;15.132;2022-11-09T01:49:48;27.13;;;3.63;;
20928;SDS011;21895;47.072;15.132;2022-11-09T01:52:24;13.30;;;3.30;;
20928;SDS011;21895;47.072;15.132;2022-11-09T01:55:11;5.10;;;3.07;;
20928;SDS011;21895;47.072;15.132;2022-11-09T01:57:46;12.87;;;3.53;;
20928;SDS011;21895;47.072;15.132;2022-11-09T02:00:21;4.63;;;2.77;;
20928;SDS011;21895;47.072;15.132;2022-11-09T02:02:49;14.77;;;2.70;;
20928;SDS011;21895;47.072;15.132;2022-11-09T02:05:28;5.07;;;3.07;;
20928;SDS011;21895;47.072;15.132;2022-11-09T02:07:59;14.40;;;3.30;;
20928;SDS011;21895;47.072;15.132;2022-11-09T02:10:54;37.97;;;3.43;;
20928;SDS011;21895;47.072;15.132;2022-11-09T02:13:36;36.33;;;3.70;;
20928;SDS011;21895;47.072;15.132;2022-11-09T02:16:08;29.37;;;3.60;;
20928;SDS011;21895;47.072;15.132;2022-11-09T02:18:44;37.27;;;3.43;;
20928;SDS011;21895;47.072;15.132;2022-11-09T02:21:21;9.27;;;3.23;;
20928;SDS011;21895;47.072;15.132;2022-11-09T02:23:51;7.07;;;3.10;;
20928;SDS011;21895;47.072;15.132;2022-11-09T02:26:20;5.03;;;3.07;;
20928;SDS011;21895;47.072;15.132;2022-11-09T02:28:57;5.80;;;2.93;;
20928;SDS011;21895;47.072;15.132;2022-11-09T02:31:27;7.00;;;3.40;;
20928;SDS011;21895;47.072;15.132;2022-11-09T02:34:03;6.47;;;3.10;;
20928;SDS011;21895;47.072;15.132;2022-11-09T02:36:34;13.43;;;3.10;;
20928;SDS011;21895;47.072;15.132;2022-11-09T02:39:00;6.47;;;2.90;;
20928;SDS011;21895;47.072;15.132;2022-11-09T02:41:29;5.47;;;3.00;;
20928;SDS011;21895;47.072;15.132;2022-11-09T02:43:59;16.50;;;3.10;;
20928;SDS011;21895;47.072;15.132;2022-11-09T02:46:30;9.47;;;3.03;;
20928;SDS011;21895;47.072;15.132;2022-11-09T02:49:00;5.27;;;2.70;;
20928;SDS011;21895;47.072;15.132;2022-11-09T02:51:27;5.00;;;2.87;;
20928;SDS011;21895;47.072;15.132;2022-11-09T02:53:55;5.40;;;3.10;;
20928;SDS011;21895;47.072;15.132;2022-11-09T02:56:21;13.47;;;2.97;;
20928;SDS011;21895;47.072;15.132;2022-11-09T02:58:48;9.43;;;2.60;;
20928;SDS011;21895;47.072;15.132;2022-11-09T03:01:15;14.57;;;2.50;;
20928;SDS011;21895;47.072;15.132;2022-11-09T03:03:42;58.37;;;3.70;;
20928;SDS011;21895;47.072;15.132;2022-11-09T03:06:08;25.43;;;3.13;;
20928;SDS011;21895;47.072;15.132;2022-11-09T03:08:35;8.87;;;2.93;;
20928;SDS011;21895;47.072;15.132;2022-11-09T03:11:01;7.40;;;2.93;;
20928;SDS011;21895;47.072;15.132;2022-11-09T03:13:30;54.87;;;3.77;;
20928;SDS011;21895;47.072;15.132;2022-11-09T03:16:02;85.63;;;4.87;;
20928;SDS011;21895;47.072;15.132;2022-11-09T03:18:33;34.80;;;3.63;;
20928;SDS011;21895;47.072;15.132;2022-11-09T03:21:00;9.03;;;2.90;;
20928;SDS011;21895;47.072;15.132;2022-11-09T03:23:31;13.63;;;3.30;;
20928;SDS011;21895;47.072;15.132;2022-11-09T03:25:57;49.30;;;4.17;;
20928;SDS011;21895;47.072;15.132;2022-11-09T03:28:24;34.00;;;3.23;;
20928;SDS011;21895;47.072;15.132;2022-11-09T03:30:51;66.77;;;3.93;;
20928;SDS011;21895;47.072;15.132;2022-11-09T03:33:17;19.77;;;3.00;;
20928;SDS011;21895;47.072;15.132;2022-11-09T03:35:44;28.43;;;3.20;;
20928;SDS011;21895;47.072;15.132;2022-11-09T03:38:11;8.00;;;2.93;;
20928;SDS011;21895;47.072;15.132;2022-11-09T03:40:38;28.73;;;2.93;;
20928;SDS011;21895;47.072;15.132;2022-11-09T03:43:04;5.20;;;2.93;;
20928;SDS011;21895;47.072;15.132;2022-11-09T03:45:34;8.63;;;2.67;;
20928;SDS011;21895;47.072;15.132;2022-11-09T03:48:01;8.87;;;2.80;;
20928;SDS011;21895;47.072;15.132;2022-11-09T03:50:29;13.07;;;3.03;;
20928;SDS011;21895;47.072;15.132;2022-11-09T03:52:58;3.47;;;2.20;;
20928;SDS011;21895;47.072;15.132;2022-11-09T03:55:26;4.87;;;2.60;;
20928;SDS011;21895;47.072;15.132;2022-11-09T03:57:53;7.13;;;2.80;;
20928;SDS011;21895;47.072;15.132;2022-11-09T04:00:20;4.43;;;2.43;;
20928;SDS011;21895;47.072;15.132;2022-11-09T04:02:48;36.10;;;3.07;;
20928;SDS011;21895;47.072;15.132;2022-11-09T04:05:15;26.40;;;3.17;;
20928;SDS011;21895;47.072;15.132;2022-11-09T04:07:48;27.87;;;3.20;;
20928;SDS011;21895;47.072;15.132;2022-11-09T04:10:18;12.83;;;2.90;;
20928;SDS011;21895;47.072;15.132;2022-11-09T04:12:46;4.30;;;2.63;;
20928;SDS011;21895;47.072;15.132;2022-11-09T04:15:13;11.80;;;2.63;;
20928;SDS011;21895;47.072;15.132;2022-11-09T04:17:40;25.20;;;2.90;;
20928;SDS011;21895;47.072;15.132;2022-11-09T04:20:09;41.83;;;3.23;;
20928;SDS011;21895;47.072;15.132;2022-11-09T04:22:36;15.87;;;2.53;;
20928;SDS011;21895;47.072;15.132;2022-11-09T04:25:03;4.73;;;2.63;;
20928;SDS011;21895;47.072;15.132;2022-11-09T04:27:30;32.97;;;3.50;;
20928;SDS011;21895;47.072;15.132;2022-11-09T04:29:57;9.10;;;2.50;;
20928;SDS011;21895;47.072;15.132;2022-11-09T04:32:23;11.50;;;2.20;;
20928;SDS011;21895;47.072;15.132;2022-11-09T04:34:50;26.07;;;3.13;;
20928;SDS011;21895;47.072;15.132;2022-11-09T04:37:16;18.50;;;2.83;;
20928;SDS011;21895;47.072;15.132;2022-11-09T04:39:42;13.63;;;2.63;;
20928;SDS011;21895;47.072;15.132;2022-11-09T04:42:09;8.33;;;2.63;;
20928;SDS011;21895;47.072;15.132;2022-11-09T04:44:36;7.97;;;2.80;;
20928;SDS011;21895;47.072;15.132;2022-11-09T04:47:03;9.47;;;2.70;;
20928;SDS011;21895;47.072;15.132;2022-11-09T04:49:29;4.90;;;3.03;;
20928;SDS011;21895;47.072;15.132;2022-11-09T04:51:56;11.80;;;3.23;;
20928;SDS011;21895;47.072;15.132;2022-11-09T04:54:22;29.47;;;3.13;;
20928;SDS011;21895;47.072;15.132;2022-11-09T04:56:49;10.00;;;3.10;;
20928;SDS011;21895;47.072;15.132;2022-11-09T04:59:15;6.57;;;2.87;;
20928;SDS011;21895;47.072;15.132;2022-11-09T05:01:42;20.50;;;2.93;;
20928;SDS011;21895;47.072;15.132;2022-11-09T05:04:08;21.43;;;3.03;;
20928;SDS011;21895;47.072;15.132;2022-11-09T05:06:35;38.50;;;3.27;;
20928;SDS011;21895;47.072;15.132;2022-11-09T05:09:03;22.77;;;3.50;;
20928;SDS011;21895;47.072;15.132;2022-11-09T05:11:32;23.50;;;3.00;;
20928;SDS011;21895;47.072;15.132;2022-11-09T05:14:00;6.80;;;3.30;;
20928;SDS011;21895;47.072;15.132;2022-11-09T05:16:28;14.33;;;6.97;;
20928;SDS011;21895;47.072;15.132;2022-11-09T05:18:56;15.90;;;7.10;;
20928;SDS011;21895;47.072;15.132;2022-11-09T05:21:22;17.80;;;7.40;;
20928;SDS011;21895;47.072;15.132;2022-11-09T05:23:49;14.37;;;6.20;;
20928;SDS011;21895;47.072;15.132;2022-11-09T05:26:39;13.57;;;6.03;;
20928;SDS011;21895;47.072;15.132;2022-11-09T05:29:08;11.83;;;4.70;;
20928;SDS011;21895;47.072;15.132;2022-11-09T05:31:36;5.97;;;2.90;;
20928;SDS011;21895;47.072;15.132;2022-11-09T05:34:05;6.67;;;3.30;;
20928;SDS011;21895;47.072;15.132;2022-11-09T05:36:32;7.70;;;2.60;;
20928;SDS011;21895;47.072;15.132;2022-11-09T05:38:59;6.77;;;3.20;;
20928;SDS011;21895;47.072;15.132;2022-11-09T05:41:26;5.53;;;2.87;;
20928;SDS011;21895;47.072;15.132;2022-11-09T05:43:52;6.57;;;3.20;;
20928;SDS011;21895;47.072;15.132;2022-11-09T05:46:19;7.07;;;3.27;;
20928;SDS011;21895;47.072;15.132;2022-11-09T05:48:45;5.33;;;2.60;;
20928;SDS011;21895;47.072;15.132;2022-11-09T05:51:12;5.77;;;2.83;;
20928;SDS011;21895;47.072;15.132;2022-11-09T05:53:39;6.63;;;2.63;;
20928;SDS011;21895;47.072;15.132;2022-11-09T05:56:11;6.40;;;2.60;;
20928;SDS011;21895;47.072;15.132;2022-11-09T05:58:39;8.90;;;3.03;;
20928;SDS011;21895;47.072;15.132;2022-11-09T06:01:07;4.50;;;2.70;;
20928;SDS011;21895;47.072;15.132;2022-11-09T06:03:37;9.03;;;2.57;;
20928;SDS011;21895;47.072;15.132;2022-11-09T06:06:05;8.37;;;3.93;;
20928;SDS011;21895;47.072;15.132;2022-11-09T06:08:34;9.27;;;3.47;;
20928;SDS011;21895;47.072;15.132;2022-11-09T06:11:02;7.57;;;3.40;;
20928;SDS011;21895;47.072;15.132;2022-11-09T06:13:33;42.30;;;3.87;;
20928;SDS011;21895;47.072;15.132;2022-11-09T06:16:02;8.33;;;2.63;;
20928;SDS011;21895;47.072;15.132;2022-11-09T06:18:31;6.23;;;3.20;;
20928;SDS011;21895;47.072;15.132;2022-11-09T06:21:01;5.30;;;2.73;;
20928;SDS011;21895;47.072;15.132;2022-11-09T06:23:29;6.80;;;3.00;;
20928;SDS011;21895;47.072;15.132;2022-11-09T06:26:00;20.10;;;3.43;;
20928;SDS011;21895;47.072;15.132;2022-11-09T06:28:34;35.17;;;3.13;;
20928;SDS011;21895;47.072;15.132;2022-11-09T06:31:02;4.90;;;2.50;;
20928;SDS011;21895;47.072;15.132;2022-11-09T06:33:31;11.90;;;3.17;;
20928;SDS011;21895;47.072;15.132;2022-11-09T06:36:00;4.93;;;2.70;;
20928;SDS011;21895;47.072;15.132;2022-11-09T06:38:28;8.63;;;3.33;;
20928;SDS011;21895;47.072;15.132;2022-11-09T06:40:55;11.47;;;3.03;;
20928;SDS011;21895;47.072;15.132;2022-11-09T06:43:24;34.93;;;3.20;;
20928;SDS011;21895;47.072;15.132;2022-11-09T06:45:52;25.40;;;2.93;;
20928;SDS011;21895;47.072;15.132;2022-11-09T06:48:19;28.77;;;2.93;;
20928;SDS011;21895;47.072;15.132;2022-11-09T06:50:46;15.67;;;2.80;;
20928;SDS011;21895;47.072;15.132;2022-11-09T06:53:13;19.67;;;2.97;;
20928;SDS011;21895;47.072;15.132;2022-11-09T06:55:41;12.97;;;2.77;;
20928;SDS011;21895;47.072;15.132;2022-11-09T06:58:15;4.93;;;2.57;;
20928;SDS011;21895;47.072;15.132;2022-11-09T07:00:43;13.20;;;2.63;;
20928;SDS011;21895;47.072;15.132;2022-11-09T07:03:16;15.60;;;2.90;;
20928;SDS011;21895;47.072;15.132;2022-11-09T07:05:45;10.87;;;4.43;;
20928;SDS011;21895;47.072;15.132;2022-11-09T07:08:14;32.40;;;5.23;;
20928;SDS011;21895;47.072;15.132;2022-11-09T07:10:43;30.00;;;6.13;;
20928;SDS011;21895;47.072;15.132;2022-11-09T07:13:10;25.07;;;6.97;;
20928;SDS011;21895;47.072;15.132;2022-11-09T07:15:37;49.63;;;6.70;;
20928;SDS011;21895;47.072;15.132;2022-11-09T07:18:05;18.80;;;7.23;;
20928;SDS011;21895;47.072;15.132;2022-11-09T07:20:36;17.53;;;6.70;;
20928;SDS011;21895;47.072;15.132;2022-11-09T07:23:03;9.70;;;4.07;;
20928;SDS011;21895;47.072;15.132;2022-11-09T07:25:29;7.67;;;3.27;;
20928;SDS011;21895;47.072;15.132;2022-11-09T07:28:00;8.63;;;3.70;;
20928;SDS011;21895;47.072;15.132;2022-11-09T07:30:33;31.20;;;4.27;;
20928;SDS011;21895;47.072;15.132;2022-11-09T07:33:01;9.77;;;3.07;;
20928;SDS011;21895;47.072;15.132;2022-11-09T07:35:36;7.80;;;3.10;;
20928;SDS011;21895;47.072;15.132;2022-11-09T07:38:03;21.33;;;3.57;;
20928;SDS011;21895;47.072;15.132;2022-11-09T07:40:29;24.10;;;5.30;;
20928;SDS011;21895;47.072;15.132;2022-11-09T07:42:56;13.27;;;4.90;;
20928;SDS011;21895;47.072;15.132;2022-11-09T07:45:24;6.33;;;3.90;;
20928;SDS011;21895;47.072;15.132;2022-11-09T07:47:55;7.70;;;3.17;;
20928;SDS011;21895;47.072;15.132;2022-11-09T07:50:27;9.33;;;2.73;;
20928;SDS011;21895;47.072;15.132;2022-11-09T07:52:55;6.97;;;3.03;;
20928;SDS011;21895;47.072;15.132;2022-11-09T07:55:23;7.33;;;3.33;;
20928;SDS011;21895;47.072;15.132;2022-11-09T07:57:58;7.77;;;3.90;;
20928;SDS011;21895;47.072;15.132;2022-11-09T08:00:34;6.10;;;3.07;;
20928;SDS011;21895;47.072;15.132;2022-11-09T08:03:02;7.57;;;4.37;;
20928;SDS011;21895;47.072;15.132;2022-11-09T08:05:30;9.50;;;4.10;;
20928;SDS011;21895;47.072;15.132;2022-11-09T08:07:57;10.33;;;4.97;;
20928;SDS011;21895;47.072;15.132;2022-11-09T08:10:28;14.13;;;4.97;;
20928;SDS011;21895;47.072;15.132;2022-11-09T08:12:56;12.50;;;5.93;;
20928;SDS011;21895;47.072;15.132;2022-11-09T08:15:25;17.57;;;7.20;;
20928;SDS011;21895;47.072;15.132;2022-11-09T08:17:53;18.67;;;7.53;;
20928;SDS011;21895;47.072;15.132;2022-11-09T08:20:23;20.60;;;8.37;;
20928;SDS011;21895;47.072;15.132;2022-11-09T08:22:50;21.17;;;8.53;;
20928;SDS011;21895;47.072;15.132;2022-11-09T08:25:16;15.50;;;7.17;;
20928;SDS011;21895;47.072;15.132;2022-11-09T08:27:43;20.47;;;8.37;;
20928;SDS011;21895;47.072;15.132;2022-11-09T08:30:19;24.60;;;8.97;;
20928;SDS011;21895;47.072;15.132;2022-11-09T08:32:47;28.00;;;10.13;;
20928;SDS011;21895;47.072;15.132;2022-11-09T08:35:15;23.93;;;9.53;;
20928;SDS011;21895;47.072;15.132;2022-11-09T08:37:45;25.37;;;9.60;;
20928;SDS011;21895;47.072;15.132;2022-11-09T08:40:15;20.00;;;8.80;;
20928;SDS011;21895;47.072;15.132;2022-11-09T08:42:45;20.40;;;9.40;;
20928;SDS011;21895;47.072;15.132;2022-11-09T08:45:12;20.53;;;8.37;;
20928;SDS011;21895;47.072;15.132;2022-11-09T08:47:39;20.50;;;9.27;;
20928;SDS011;21895;47.072;15.132;2022-11-09T08:50:07;17.17;;;7.80;;
20928;SDS011;21895;47.072;15.132;2022-11-09T08:52:36;15.23;;;7.57;;
20928;SDS011;21895;47.072;15.132;2022-11-09T08:55:02;15.73;;;7.37;;
20928;SDS011;21895;47.072;15.132;2022-11-09T08:57:30;26.27;;;8.00;;
20928;SDS011;21895;47.072;15.132;2022-11-09T08:59:56;22.57;;;7.47;;
20928;SDS011;21895;47.072;15.132;2022-11-09T09:02:23;16.27;;;7.03;;
20928;SDS011;21895;47.072;15.132;2022-11-09T09:04:50;15.20;;;6.10;;
20928;SDS011;21895;47.072;15.132;2022-11-09T09:07:16;17.23;;;6.40;;
20928;SDS011;21895;47.072;15.132;2022-11-09T09:09:43;15.00;;;7.50;;
20928;SDS011;21895;47.072;15.132;2022-11-09T09:12:09;14.93;;;7.27;;
20928;SDS011;21895;47.072;15.132;2022-11-09T09:14:36;17.90;;;7.27;;
20928;SDS011;21895;47.072;15.132;2022-11-09T09:17:02;18.23;;;6.20;;
20928;SDS011;21895;47.072;15.132;2022-11-09T09:19:29;18.77;;;7.10;;
20928;SDS011;21895;47.072;15.132;2022-11-09T09:21:56;19.40;;;8.00;;
20928;SDS011;21895;47.072;15.132;2022-11-09T09:24:23;21.63;;;8.20;;
20928;SDS011;21895;47.072;15.132;2022-11-09T09:26:51;24.10;;;7.37;;
20928;SDS011;21895;47.072;15.132;2022-11-09T09:29:17;21.77;;;7.10;;
20928;SDS011;21895;47.072;15.132;2022-11-09T09:31:44;17.87;;;6.30;;
20928;SDS011;21895;47.072;15.132;2022-11-09T09:34:13;26.30;;;5.90;;
20928;SDS011;21895;47.072;15.132;2022-11-09T09:36:39;15.27;;;5.40;;
20928;SDS011;21895;47.072;15.132;2022-11-09T09:39:12;19.27;;;6.00;;
20928;SDS011;21895;47.072;15.132;2022-11-09T09:41:41;16.80;;;6.33;;
20928;SDS011;21895;47.072;15.132;2022-11-09T09:48:25;18.07;;;5.30;;
20928;SDS011;21895;47.072;15.132;2022-11-09T09:51:21;9.57;;;5.10;;
20928;SDS011;21895;47.072;15.132;2022-11-09T09:56:00;15.43;;;5.33;;
20928;SDS011;21895;47.072;15.132;2022-11-09T09:58:40;13.83;;;5.07;;
20928;SDS011;21895;47.072;15.132;2022-11-09T10:01:15;14.87;;;5.53;;
20928;SDS011;21895;47.072;15.132;2022-11-09T10:03:48;16.33;;;5.87;;
20928;SDS011;21895;47.072;15.132;2022-11-09T10:06:36;11.20;;;5.30;;
20928;SDS011;21895;47.072;15.132;2022-11-09T10:18:03;13.60;;;5.23;;
20928;SDS011;21895;47.072;15.132;2022-11-09T10:25:24;12.07;;;5.63;;
20928;SDS011;21895;47.072;15.132;2022-11-09T10:28:23;10.17;;;5.57;;
20928;SDS011;21895;47.072;15.132;2022-11-09T10:31:21;19.87;;;5.97;;
20928;SDS011;21895;47.072;15.132;2022-11-09T10:33:53;13.53;;;5.67;;
20928;SDS011;21895;47.072;15.132;2022-11-09T10:39:17;15.23;;;6.13;;
20928;SDS011;21895;47.072;15.132;2022-11-09T10:41:49;15.33;;;6.03;;
20928;SDS011;21895;47.072;15.132;2022-11-09T10:44:16;17.97;;;6.30;;
20928;SDS011;21895;47.072;15.132;2022-11-09T10:52:02;13.07;;;5.40;;
20928;SDS011;21895;47.072;15.132;2022-11-09T10:54:35;19.40;;;5.97;;
20928;SDS011;21895;47.072;15.132;2022-11-09T10:57:12;15.40;;;6.20;;
20928;SDS011;21895;47.072;15.132;2022-11-09T10:59:48;22.37;;;6.20;;
20928;SDS011;21895;47.072;15.132;2022-11-09T11:07:58;12.13;;;5.97;;
20928;SDS011;21895;47.072;15.132;2022-11-09T11:11:03;14.33;;;6.40;;
20928;SDS011;21895;47.072;15.132;2022-11-09T11:14:20;10.87;;;5.73;;
20928;SDS011;21895;47.072;15.132;2022-11-09T11:16:59;10.73;;;6.30;;
20928;SDS011;21895;47.072;15.132;2022-11-09T11:19:38;14.33;;;6.63;;
20928;SDS011;21895;47.072;15.132;2022-11-09T11:22:14;15.80;;;6.63;;
20928;SDS011;21895;47.072;15.132;2022-11-09T11:24:53;16.37;;;6.83;;
20928;SDS011;21895;47.072;15.132;2022-11-09T11:27:47;14.10;;;6.50;;
20928;SDS011;21895;47.072;15.132;2022-11-09T11:30:27;10.50;;;6.03;;
20928;SDS011;21895;47.072;15.132;2022-11-09T11:32:59;15.73;;;6.47;;
20928;SDS011;21895;47.072;15.132;2022-11-09T11:35:31;16.47;;;6.33;;
20928;SDS011;21895;47.072;15.132;2022-11-09T11:41:18;12.57;;;6.23;;
20928;SDS011;21895;47.072;15.132;2022-11-09T11:46:01;15.77;;;6.17;;
20928;SDS011;21895;47.072;15.132;2022-11-09T11:54:25;16.43;;;6.90;;
20928;SDS011;21895;47.072;15.132;2022-11-09T11:59:45;22.37;;;6.90;;
20928;SDS011;21895;47.072;15.132;2022-11-09T12:10:35;15.80;;;6.77;;
20928;SDS011;21895;47.072;15.132;2022-11-09T12:19:31;10.90;;;6.03;;
20928;SDS011;21895;47.072;15.132;2022-11-09T12:28:40;11.10;;;5.90;;
20928;SDS011;21895;47.072;15.132;2022-11-09T12:31:48;12.83;;;6.13;;
20928;SDS011;21895;47.072;15.132;2022-11-09T12:39:53;16.83;;;5.73;;
20928;SDS011;21895;47.072;15.132;2022-11-09T12:42:34;10.03;;;5.20;;
20928;SDS011;21895;47.072;15.132;2022-11-09T12:45:37;14.40;;;6.73;;
20928;SDS011;21895;47.072;15.132;2022-11-09T12:48:08;11.27;;;5.83;;
20928;SDS011;21895;47.072;15.132;2022-11-09T12:50:47;12.00;;;6.40;;
20928;SDS011;21895;47.072;15.132;2022-11-09T12:53:16;12.03;;;6.20;;
20928;SDS011;21895;47.072;15.132;2022-11-09T12:55:49;15.03;;;6.40;;
20928;SDS011;21895;47.072;15.132;2022-11-09T12:59:30;15.43;;;6.57;;
20928;SDS011;21895;47.072;15.132;2022-11-09T13:02:01;11.70;;;6.40;;
20928;SDS011;21895;47.072;15.132;2022-11-09T13:04:30;15.80;;;6.83;;
20928;SDS011;21895;47.072;15.132;2022-11-09T13:07:16;16.70;;;6.17;;
20928;SDS011;21895;47.072;15.132;2022-11-09T13:11:48;14.97;;;6.07;;
20928;SDS011;21895;47.072;15.132;2022-11-09T13:21:31;13.00;;;6.33;;
20928;SDS011;21895;47.072;15.132;2022-11-09T13:24:10;18.63;;;6.90;;
20928;SDS011;21895;47.072;15.132;2022-11-09T13:27:35;11.70;;;6.30;;
20928;SDS011;21895;47.072;15.132;2022-11-09T13:30:50;15.70;;;6.53;;
20928;SDS011;21895;47.072;15.132;2022-11-09T13:33:18;14.30;;;6.70;;
20928;SDS011;21895;47.072;15.132;2022-11-09T13:35:55;14.17;;;6.13;;
20928;SDS011;21895;47.072;15.132;2022-11-09T13:39:27;10.67;;;6.23;;
20928;SDS011;21895;47.072;15.132;2022-11-09T13:42:02;12.83;;;5.87;;
20928;SDS011;21895;47.072;15.132;2022-11-09T13:45:38;14.73;;;6.50;;
20928;SDS011;21895;47.072;15.132;2022-11-09T13:48:28;11.87;;;6.13;;
20928;SDS011;21895;47.072;15.132;2022-11-09T13:51:15;13.17;;;6.07;;
20928;SDS011;21895;47.072;15.132;2022-11-09T13:53:56;12.13;;;6.10;;
20928;SDS011;21895;47.072;15.132;2022-11-09T13:56:35;16.47;;;7.10;;
20928;SDS011;21895;47.072;15.132;2022-11-09T14:01:59;12.87;;;6.27;;
20928;SDS011;21895;47.072;15.132;2022-11-09T14:04:37;12.37;;;6.80;;
20928;SDS011;21895;47.072;15.132;2022-11-09T14:07:08;11.80;;;6.17;;
20928;SDS011;21895;47.072;15.132;2022-11-09T14:15:16;12.90;;;6.50;;
20928;SDS011;21895;47.072;15.132;2022-11-09T14:23:37;12.10;;;6.40;;
20928;SDS011;21895;47.072;15.132;2022-11-09T14:26:08;12.73;;;6.23;;
20928;SDS011;21895;47.072;15.132;2022-11-09T14:28:43;14.00;;;6.40;;
20928;SDS011;21895;47.072;15.132;2022-11-09T14:31:23;12.37;;;5.63;;
20928;SDS011;21895;47.072;15.132;2022-11-09T14:34:02;11.20;;;5.27;;
20928;SDS011;21895;47.072;15.132;2022-11-09T14:36:32;13.60;;;5.70;;
20928;SDS011;21895;47.072;15.132;2022-11-09T14:39:00;13.50;;;6.33;;
20928;SDS011;21895;47.072;15.132;2022-11-09T14:41:42;12.10;;;6.50;;
20928;SDS011;21895;47.072;15.132;2022-11-09T14:44:18;13.60;;;6.07;;
20928;SDS011;21895;47.072;15.132;2022-11-09T14:46:53;9.70;;;5.27;;
20928;SDS011;21895;47.072;15.132;2022-11-09T14:49:22;14.70;;;5.50;;
20928;SDS011;21895;47.072;15.132;2022-11-09T14:51:51;9.60;;;5.43;;
20928;SDS011;21895;47.072;15.132;2022-11-09T14:54:18;12.03;;;5.80;;
20928;SDS011;21895;47.072;15.132;2022-11-09T14:56:50;14.23;;;5.83;;
20928;SDS011;21895;47.072;15.132;2022-11-09T14:59:26;19.40;;;5.80;;
20928;SDS011;21895;47.072;15.132;2022-11-09T15:02:01;16.13;;;6.17;;
20928;SDS011;21895;47.072;15.132;2022-11-09T15:04:54;18.93;;;6.87;;
20928;SDS011;21895;47.072;15.132;2022-11-09T15:07:27;20.33;;;6.87;;
20928;SDS011;21895;47.072;15.132;2022-11-09T15:10:00;10.87;;;5.20;;
20928;SDS011;21895;47.072;15.132;2022-11-09T15:12:33;10.33;;;4.67;;
20928;SDS011;21895;47.072;15.132;2022-11-09T15:15:03;17.43;;;5.53;;
20928;SDS011;21895;47.072;15.132;2022-11-09T15:17:36;9.47;;;5.10;;
20928;SDS011;21895;47.072;15.132;2022-11-09T15:22:59;12.87;;;5.47;;
20928;SDS011;21895;47.072;15.132;2022-11-09T15:25:52;14.03;;;5.27;;
20928;SDS011;21895;47.072;15.132;2022-11-09T15:28:24;25.97;;;8.27;;
20928;SDS011;21895;47.072;15.132;2022-11-09T15:33:50;15.23;;;5.93;;
20928;SDS011;21895;47.072;15.132;2022-11-09T15:39:13;17.77;;;5.63;;
20928;SDS011;21895;47.072;15.132;2022-11-09T15:41:42;15.40;;;5.33;;
20928;SDS011;21895;47.072;15.132;2022-11-09T15:44:09;11.13;;;5.03;;
20928;SDS011;21895;47.072;15.132;2022-11-09T15:46:39;15.37;;;5.30;;
20928;SDS011;21895;47.072;15.132;2022-11-09T15:49:19;11.43;;;5.57;;
20928;SDS011;21895;47.072;15.132;2022-11-09T15:51:51;13.43;;;6.33;;
20928;SDS011;21895;47.072;15.132;2022-11-09T15:54:19;15.17;;;5.57;;
20928;SDS011;21895;47.072;15.132;2022-11-09T15:56:48;15.50;;;6.40;;
20928;SDS011;21895;47.072;15.132;2022-11-09T15:59:17;11.80;;;6.23;;
20928;SDS011;21895;47.072;15.132;2022-11-09T16:01:48;18.00;;;6.13;;
20928;SDS011;21895;47.072;15.132;2022-11-09T16:04:15;12.30;;;6.00;;
20928;SDS011;21895;47.072;15.132;2022-11-09T16:06:41;14.13;;;6.63;;
20928;SDS011;21895;47.072;15.132;2022-11-09T16:09:12;14.63;;;6.80;;
20928;SDS011;21895;47.072;15.132;2022-11-09T16:11:38;15.67;;;6.50;;
20928;SDS011;21895;47.072;15.132;2022-11-09T16:14:05;14.57;;;5.53;;
20928;SDS011;21895;47.072;15.132;2022-11-09T16:16:32;13.43;;;5.63;;
20928;SDS011;21895;47.072;15.132;2022-11-09T16:18:59;12.30;;;5.10;;
20928;SDS011;21895;47.072;15.132;2022-11-09T16:21:25;12.97;;;6.20;;
20928;SDS011;21895;47.072;15.132;2022-11-09T16:23:52;15.33;;;5.70;;
20928;SDS011;21895;47.072;15.132;2022-11-09T16:26:23;11.33;;;5.03;;
20928;SDS011;21895;47.072;15.132;2022-11-09T16:28:50;10.63;;;5.00;;
20928;SDS011;21895;47.072;15.132;2022-11-09T16:31:18;10.63;;;4.87;;
20928;SDS011;21895;47.072;15.132;2022-11-09T16:34:06;10.60;;;5.33;;
20928;SDS011;21895;47.072;15.132;2022-11-09T16:36:33;11.10;;;5.30;;
20928;SDS011;21895;47.072;15.132;2022-11-09T16:39:03;10.93;;;5.20;;
20928;SDS011;21895;47.072;15.132;2022-11-09T16:41:35;18.93;;;5.30;;